sensor_id;sensor_type;location;lat;lon;timestamp;temperature;humidity
6480;DHT22;71753;48.772;9.148;2024-02-16T00:01:08;10.20;76.28
6480;DHT22;71753;48.772;9.148;2024-02-16T00:03:34;10.27;76.18
6480;DHT22;71753;48.772;9.148;2024-02-16T00:06:03;10.19;76.53
6480;DHT22;71753;48.772;9.148;2024-02-16T00:08:29;10.23;76.45
6480;DHT22;71753;48.772;9.148;2024-02-16T00:10:56;10.29;75.83
6480;DHT22;71753;48.772;9.148;2024-02-16T00:13:23;10.35;75.63
6480;DHT22;71753;48.772;9.148;2024-02-16T00:15:50;10.42;75.15
6480;DHT22;71753;48.772;9.148;2024-02-16T00:18:17;10.48;75.11
6480;DHT22;71753;48.772;9.148;2024-02-16T00:20:43;10.42;75.11
6480;DHT22;71753;48.772;9.148;2024-02-16T00:23:13;10.43;75.21
6480;DHT22;71753;48.772;9.148;2024-02-16T00:25:39;10.27;76.24
6480;DHT22;71753;48.772;9.148;2024-02-16T00:28:06;10.39;75.37
6480;DHT22;71753;48.772;9.148;2024-02-16T00:30:33;10.45;74.69
6480;DHT22;71753;48.772;9.148;2024-02-16T00:32:59;10.52;74.53
6480;DHT22;71753;48.772;9.148;2024-02-16T00:35:26;10.52;74.35
6480;DHT22;71753;48.772;9.148;2024-02-16T00:37:53;10.46;75.07
6480;DHT22;71753;48.772;9.148;2024-02-16T00:40:21;10.52;74.65
6480;DHT22;71753;48.772;9.148;2024-02-16T00:42:48;10.51;75.05
6480;DHT22;71753;48.772;9.148;2024-02-16T00:45:15;10.49;75.39
6480;DHT22;71753;48.772;9.148;2024-02-16T00:47:41;10.46;75.25
6480;DHT22;71753;48.772;9.148;2024-02-16T00:50:10;10.43;75.44
6480;DHT22;71753;48.772;9.148;2024-02-16T00:52:37;10.49;75.44
6480;DHT22;71753;48.772;9.148;2024-02-16T00:55:05;10.36;76.12
6480;DHT22;71753;48.772;9.148;2024-02-16T00:57:33;10.36;76.34
6480;DHT22;71753;48.772;9.148;2024-02-16T01:00:00;10.22;76.89
6480;DHT22;71753;48.772;9.148;2024-02-16T01:02:28;10.33;76.52
6480;DHT22;71753;48.772;9.148;2024-02-16T01:04:57;10.36;76.44
6480;DHT22;71753;48.772;9.148;2024-02-16T01:07:27;10.15;77.50
6480;DHT22;71753;48.772;9.148;2024-02-16T01:09:54;10.15;77.33
6480;DHT22;71753;48.772;9.148;2024-02-16T01:12:21;10.26;76.70
6480;DHT22;71753;48.772;9.148;2024-02-16T01:14:49;10.03;77.83
6480;DHT22;71753;48.772;9.148;2024-02-16T01:17:16;9.85;78.85
6480;DHT22;71753;48.772;9.148;2024-02-16T01:19:43;9.99;78.33
6480;DHT22;71753;48.772;9.148;2024-02-16T01:22:09;9.89;78.69
6480;DHT22;71753;48.772;9.148;2024-02-16T01:24:36;9.91;78.64
6480;DHT22;71753;48.772;9.148;2024-02-16T01:27:03;9.97;78.40
6480;DHT22;71753;48.772;9.148;2024-02-16T01:29:29;9.90;78.69
6480;DHT22;71753;48.772;9.148;2024-02-16T01:31:59;9.94;78.70
6480;DHT22;71753;48.772;9.148;2024-02-16T01:34:25;10.04;78.05
6480;DHT22;71753;48.772;9.148;2024-02-16T01:36:52;10.10;77.69
6480;DHT22;71753;48.772;9.148;2024-02-16T01:39:19;10.14;77.31
6480;DHT22;71753;48.772;9.148;2024-02-16T01:41:46;10.21;77.05
6480;DHT22;71753;48.772;9.148;2024-02-16T01:44:12;10.19;77.47
6480;DHT22;71753;48.772;9.148;2024-02-16T01:46:42;10.16;77.77
6480;DHT22;71753;48.772;9.148;2024-02-16T01:49:10;10.04;78.42
6480;DHT22;71753;48.772;9.148;2024-02-16T01:51:40;9.97;78.77
6480;DHT22;71753;48.772;9.148;2024-02-16T01:54:07;10.07;78.39
6480;DHT22;71753;48.772;9.148;2024-02-16T01:56:33;10.10;78.30
6480;DHT22;71753;48.772;9.148;2024-02-16T01:59:00;10.19;77.89
6480;DHT22;71753;48.772;9.148;2024-02-16T02:01:27;10.01;80.43
6480;DHT22;71753;48.772;9.148;2024-02-16T02:03:53;10.09;79.24
6480;DHT22;71753;48.772;9.148;2024-02-16T02:06:22;9.99;81.28
6480;DHT22;71753;48.772;9.148;2024-02-16T02:08:48;10.08;81.77
6480;DHT22;71753;48.772;9.148;2024-02-16T02:11:15;9.99;81.94
6480;DHT22;71753;48.772;9.148;2024-02-16T02:13:42;10.10;81.47
6480;DHT22;71753;48.772;9.148;2024-02-16T02:16:10;10.18;81.55
6480;DHT22;71753;48.772;9.148;2024-02-16T02:18:37;9.91;82.81
6480;DHT22;71753;48.772;9.148;2024-02-16T02:21:04;9.76;83.97
6480;DHT22;71753;48.772;9.148;2024-02-16T02:23:32;9.65;84.38
6480;DHT22;71753;48.772;9.148;2024-02-16T02:25:59;9.99;80.79
6480;DHT22;71753;48.772;9.148;2024-02-16T02:28:26;10.08;80.47
6480;DHT22;71753;48.772;9.148;2024-02-16T02:30:54;10.08;80.28
6480;DHT22;71753;48.772;9.148;2024-02-16T02:33:21;10.10;80.37
6480;DHT22;71753;48.772;9.148;2024-02-16T02:35:48;10.12;80.74
6480;DHT22;71753;48.772;9.148;2024-02-16T02:38:14;10.13;81.46
6480;DHT22;71753;48.772;9.148;2024-02-16T02:40:42;10.15;81.03
6480;DHT22;71753;48.772;9.148;2024-02-16T02:43:09;10.01;82.02
6480;DHT22;71753;48.772;9.148;2024-02-16T02:45:36;9.93;81.86
6480;DHT22;71753;48.772;9.148;2024-02-16T02:48:03;9.85;82.01
6480;DHT22;71753;48.772;9.148;2024-02-16T02:50:29;9.88;82.07
6480;DHT22;71753;48.772;9.148;2024-02-16T02:52:57;9.91;81.94
6480;DHT22;71753;48.772;9.148;2024-02-16T02:55:23;9.94;82.21
6480;DHT22;71753;48.772;9.148;2024-02-16T02:57:52;9.90;82.11
6480;DHT22;71753;48.772;9.148;2024-02-16T03:00:19;9.92;81.57
6480;DHT22;71753;48.772;9.148;2024-02-16T03:02:45;10.00;80.28
6480;DHT22;71753;48.772;9.148;2024-02-16T03:05:12;10.07;80.21
6480;DHT22;71753;48.772;9.148;2024-02-16T03:07:39;9.96;81.73
6480;DHT22;71753;48.772;9.148;2024-02-16T03:10:07;9.75;83.28
6480;DHT22;71753;48.772;9.148;2024-02-16T03:12:35;9.76;82.89
6480;DHT22;71753;48.772;9.148;2024-02-16T03:15:04;9.74;83.85
6480;DHT22;71753;48.772;9.148;2024-02-16T03:17:31;9.97;81.89
6480;DHT22;71753;48.772;9.148;2024-02-16T03:19:58;9.86;83.17
6480;DHT22;71753;48.772;9.148;2024-02-16T03:22:25;9.72;83.52
6480;DHT22;71753;48.772;9.148;2024-02-16T03:24:52;9.89;82.67
6480;DHT22;71753;48.772;9.148;2024-02-16T03:27:19;9.92;82.66
6480;DHT22;71753;48.772;9.148;2024-02-16T03:29:45;9.97;82.03
6480;DHT22;71753;48.772;9.148;2024-02-16T03:32:14;10.06;81.37
6480;DHT22;71753;48.772;9.148;2024-02-16T03:34:40;10.06;80.21
6480;DHT22;71753;48.772;9.148;2024-02-16T03:37:07;10.16;77.40
6480;DHT22;71753;48.772;9.148;2024-02-16T03:39:34;10.24;78.03
6480;DHT22;71753;48.772;9.148;2024-02-16T03:42:01;10.12;76.94
6480;DHT22;71753;48.772;9.148;2024-02-16T03:44:28;10.30;73.57
6480;DHT22;71753;48.772;9.148;2024-02-16T03:46:55;10.58;71.49
6480;DHT22;71753;48.772;9.148;2024-02-16T03:49:24;10.57;73.77
6480;DHT22;71753;48.772;9.148;2024-02-16T03:51:53;10.57;75.38
6480;DHT22;71753;48.772;9.148;2024-02-16T03:54:20;10.48;76.28
6480;DHT22;71753;48.772;9.148;2024-02-16T03:56:46;10.34;77.52
6480;DHT22;71753;48.772;9.148;2024-02-16T03:59:13;10.16;78.75
6480;DHT22;71753;48.772;9.148;2024-02-16T04:01:40;10.20;77.87
6480;DHT22;71753;48.772;9.148;2024-02-16T04:04:07;10.23;79.98
6480;DHT22;71753;48.772;9.148;2024-02-16T04:06:35;10.26;79.73
6480;DHT22;71753;48.772;9.148;2024-02-16T04:09:02;10.22;79.53
6480;DHT22;71753;48.772;9.148;2024-02-16T04:11:31;10.16;79.48
6480;DHT22;71753;48.772;9.148;2024-02-16T04:13:58;10.20;80.11
6480;DHT22;71753;48.772;9.148;2024-02-16T04:16:24;10.09;80.76
6480;DHT22;71753;48.772;9.148;2024-02-16T04:18:51;10.12;80.74
6480;DHT22;71753;48.772;9.148;2024-02-16T04:21:18;10.23;79.40
6480;DHT22;71753;48.772;9.148;2024-02-16T04:23:47;10.18;79.57
6480;DHT22;71753;48.772;9.148;2024-02-16T04:26:14;10.14;79.67
6480;DHT22;71753;48.772;9.148;2024-02-16T04:28:40;10.19;80.04
6480;DHT22;71753;48.772;9.148;2024-02-16T04:31:07;10.05;80.63
6480;DHT22;71753;48.772;9.148;2024-02-16T04:33:34;10.03;80.54
6480;DHT22;71753;48.772;9.148;2024-02-16T04:36:00;10.08;80.47
6480;DHT22;71753;48.772;9.148;2024-02-16T04:38:27;10.07;80.06
6480;DHT22;71753;48.772;9.148;2024-02-16T04:40:55;10.09;80.01
6480;DHT22;71753;48.772;9.148;2024-02-16T04:43:22;10.19;77.79
6480;DHT22;71753;48.772;9.148;2024-02-16T04:45:49;10.26;76.23
6480;DHT22;71753;48.772;9.148;2024-02-16T04:48:16;10.40;74.54
6480;DHT22;71753;48.772;9.148;2024-02-16T04:50:42;10.49;72.34
6480;DHT22;71753;48.772;9.148;2024-02-16T04:53:09;10.53;72.07
6480;DHT22;71753;48.772;9.148;2024-02-16T04:55:36;10.58;71.22
6480;DHT22;71753;48.772;9.148;2024-02-16T04:58:04;10.64;71.55
6480;DHT22;71753;48.772;9.148;2024-02-16T05:00:34;10.67;71.29
6480;DHT22;71753;48.772;9.148;2024-02-16T05:03:01;10.71;69.37
6480;DHT22;71753;48.772;9.148;2024-02-16T05:05:28;10.60;75.50
6480;DHT22;71753;48.772;9.148;2024-02-16T05:07:56;10.38;77.18
6480;DHT22;71753;48.772;9.148;2024-02-16T05:10:22;10.23;78.31
6480;DHT22;71753;48.772;9.148;2024-02-16T05:12:49;10.14;78.27
6480;DHT22;71753;48.772;9.148;2024-02-16T05:15:17;10.19;77.47
6480;DHT22;71753;48.772;9.148;2024-02-16T05:17:47;10.27;75.83
6480;DHT22;71753;48.772;9.148;2024-02-16T05:20:14;10.34;76.35
6480;DHT22;71753;48.772;9.148;2024-02-16T05:22:42;10.33;74.60
6480;DHT22;71753;48.772;9.148;2024-02-16T05:25:09;10.39;75.55
6480;DHT22;71753;48.772;9.148;2024-02-16T05:27:36;10.26;76.35
6480;DHT22;71753;48.772;9.148;2024-02-16T05:30:04;10.21;77.02
6480;DHT22;71753;48.772;9.148;2024-02-16T05:32:35;10.01;78.76
6480;DHT22;71753;48.772;9.148;2024-02-16T05:35:03;9.99;78.72
6480;DHT22;71753;48.772;9.148;2024-02-16T05:37:36;10.12;77.18
6480;DHT22;71753;48.772;9.148;2024-02-16T05:40:07;10.19;76.39
6480;DHT22;71753;48.772;9.148;2024-02-16T05:42:45;10.21;76.18
6480;DHT22;71753;48.772;9.148;2024-02-16T05:45:12;10.08;77.92
6480;DHT22;71753;48.772;9.148;2024-02-16T05:47:40;9.88;78.95
6480;DHT22;71753;48.772;9.148;2024-02-16T05:50:08;9.91;77.58
6480;DHT22;71753;48.772;9.148;2024-02-16T05:52:37;9.99;77.97
6480;DHT22;71753;48.772;9.148;2024-02-16T05:55:04;10.08;75.77
6480;DHT22;71753;48.772;9.148;2024-02-16T05:57:31;10.10;75.81
6480;DHT22;71753;48.772;9.148;2024-02-16T05:59:58;10.11;75.77
6480;DHT22;71753;48.772;9.148;2024-02-16T06:02:25;10.14;75.63
6480;DHT22;71753;48.772;9.148;2024-02-16T06:04:54;10.11;75.78
6480;DHT22;71753;48.772;9.148;2024-02-16T06:07:21;10.07;76.49
6480;DHT22;71753;48.772;9.148;2024-02-16T06:09:47;10.05;76.30
6480;DHT22;71753;48.772;9.148;2024-02-16T06:12:14;9.98;77.13
6480;DHT22;71753;48.772;9.148;2024-02-16T06:14:41;10.03;77.04
6480;DHT22;71753;48.772;9.148;2024-02-16T06:17:08;10.00;74.63
6480;DHT22;71753;48.772;9.148;2024-02-16T06:19:35;10.04;76.15
6480;DHT22;71753;48.772;9.148;2024-02-16T06:22:03;9.99;75.92
6480;DHT22;71753;48.772;9.148;2024-02-16T06:24:30;10.01;75.76
6480;DHT22;71753;48.772;9.148;2024-02-16T06:26:57;10.01;74.60
6480;DHT22;71753;48.772;9.148;2024-02-16T06:29:24;10.10;74.31
6480;DHT22;71753;48.772;9.148;2024-02-16T06:31:51;10.04;76.05
6480;DHT22;71753;48.772;9.148;2024-02-16T06:34:18;10.03;74.78
6480;DHT22;71753;48.772;9.148;2024-02-16T06:36:45;10.00;75.25
6480;DHT22;71753;48.772;9.148;2024-02-16T06:39:15;9.98;74.86
6480;DHT22;71753;48.772;9.148;2024-02-16T06:41:44;9.97;75.55
6480;DHT22;71753;48.772;9.148;2024-02-16T06:44:11;9.82;76.95
6480;DHT22;71753;48.772;9.148;2024-02-16T06:46:38;9.55;77.87
6480;DHT22;71753;48.772;9.148;2024-02-16T06:49:05;9.67;77.30
6480;DHT22;71753;48.772;9.148;2024-02-16T06:51:32;9.72;76.28
6480;DHT22;71753;48.772;9.148;2024-02-16T06:53:58;9.81;75.81
6480;DHT22;71753;48.772;9.148;2024-02-16T06:56:27;9.76;76.95
6480;DHT22;71753;48.772;9.148;2024-02-16T06:58:54;9.49;78.27
6480;DHT22;71753;48.772;9.148;2024-02-16T07:01:20;9.39;79.11
6480;DHT22;71753;48.772;9.148;2024-02-16T07:03:47;9.48;78.61
6480;DHT22;71753;48.772;9.148;2024-02-16T07:06:14;9.48;78.85
6480;DHT22;71753;48.772;9.148;2024-02-16T07:08:41;9.55;78.98
6480;DHT22;71753;48.772;9.148;2024-02-16T07:11:08;9.68;78.14
6480;DHT22;71753;48.772;9.148;2024-02-16T07:13:38;9.82;77.15
6480;DHT22;71753;48.772;9.148;2024-02-16T07:16:06;9.70;78.43
6480;DHT22;71753;48.772;9.148;2024-02-16T07:18:33;9.92;76.99
6480;DHT22;71753;48.772;9.148;2024-02-16T07:21:00;9.95;77.21
6480;DHT22;71753;48.772;9.148;2024-02-16T07:23:27;10.24;76.48
6480;DHT22;71753;48.772;9.148;2024-02-16T07:25:54;10.31;75.87
6480;DHT22;71753;48.772;9.148;2024-02-16T07:28:21;10.35;75.18
6480;DHT22;71753;48.772;9.148;2024-02-16T07:30:50;10.39;74.15
6480;DHT22;71753;48.772;9.148;2024-02-16T07:33:17;10.30;74.47
6480;DHT22;71753;48.772;9.148;2024-02-16T07:35:43;10.23;74.80
6480;DHT22;71753;48.772;9.148;2024-02-16T07:38:10;10.15;75.58
6480;DHT22;71753;48.772;9.148;2024-02-16T07:40:37;10.04;76.08
6480;DHT22;71753;48.772;9.148;2024-02-16T07:43:06;9.96;77.02
6480;DHT22;71753;48.772;9.148;2024-02-16T07:45:33;10.03;75.47
6480;DHT22;71753;48.772;9.148;2024-02-16T07:48:02;9.95;76.87
6480;DHT22;71753;48.772;9.148;2024-02-16T07:50:30;10.08;74.62
6480;DHT22;71753;48.772;9.148;2024-02-16T07:52:57;10.22;73.57
6480;DHT22;71753;48.772;9.148;2024-02-16T07:55:24;10.28;73.61
6480;DHT22;71753;48.772;9.148;2024-02-16T07:57:51;10.31;73.89
6480;DHT22;71753;48.772;9.148;2024-02-16T08:00:18;10.37;73.85
6480;DHT22;71753;48.772;9.148;2024-02-16T08:02:45;10.45;73.66
6480;DHT22;71753;48.772;9.148;2024-02-16T08:05:13;10.75;73.53
6480;DHT22;71753;48.772;9.148;2024-02-16T08:07:40;10.98;73.14
6480;DHT22;71753;48.772;9.148;2024-02-16T08:10:08;11.26;71.57
6480;DHT22;71753;48.772;9.148;2024-02-16T08:12:35;11.46;71.32
6480;DHT22;71753;48.772;9.148;2024-02-16T08:15:04;11.56;71.03
6480;DHT22;71753;48.772;9.148;2024-02-16T08:17:32;11.69;70.40
6480;DHT22;71753;48.772;9.148;2024-02-16T08:19:59;11.77;70.47
6480;DHT22;71753;48.772;9.148;2024-02-16T08:22:27;11.81;69.49
6480;DHT22;71753;48.772;9.148;2024-02-16T08:24:57;11.92;69.00
6480;DHT22;71753;48.772;9.148;2024-02-16T08:27:24;12.15;68.39
6480;DHT22;71753;48.772;9.148;2024-02-16T08:29:51;12.33;66.50
6480;DHT22;71753;48.772;9.148;2024-02-16T08:32:18;12.29;66.27
6480;DHT22;71753;48.772;9.148;2024-02-16T08:34:46;12.40;65.80
6480;DHT22;71753;48.772;9.148;2024-02-16T08:37:13;12.72;64.98
6480;DHT22;71753;48.772;9.148;2024-02-16T08:39:42;13.02;62.76
6480;DHT22;71753;48.772;9.148;2024-02-16T08:42:08;13.06;62.98
6480;DHT22;71753;48.772;9.148;2024-02-16T08:44:36;13.33;62.45
6480;DHT22;71753;48.772;9.148;2024-02-16T08:47:04;13.27;61.80
6480;DHT22;71753;48.772;9.148;2024-02-16T08:49:31;13.26;61.14
6480;DHT22;71753;48.772;9.148;2024-02-16T08:51:58;13.44;60.71
6480;DHT22;71753;48.772;9.148;2024-02-16T08:54:25;13.86;60.30
6480;DHT22;71753;48.772;9.148;2024-02-16T08:56:53;13.97;59.22
6480;DHT22;71753;48.772;9.148;2024-02-16T08:59:20;14.07;58.47
6480;DHT22;71753;48.772;9.148;2024-02-16T09:01:47;14.45;58.24
6480;DHT22;71753;48.772;9.148;2024-02-16T09:04:14;14.69;57.39
6480;DHT22;71753;48.772;9.148;2024-02-16T09:06:41;15.06;56.62
6480;DHT22;71753;48.772;9.148;2024-02-16T09:09:07;14.92;56.97
6480;DHT22;71753;48.772;9.148;2024-02-16T09:11:34;14.54;57.84
6480;DHT22;71753;48.772;9.148;2024-02-16T09:14:02;14.67;58.13
6480;DHT22;71753;48.772;9.148;2024-02-16T09:16:30;14.58;58.16
6480;DHT22;71753;48.772;9.148;2024-02-16T09:18:58;14.39;57.79
6480;DHT22;71753;48.772;9.148;2024-02-16T09:21:25;14.32;59.25
6480;DHT22;71753;48.772;9.148;2024-02-16T09:23:54;14.71;58.50
6480;DHT22;71753;48.772;9.148;2024-02-16T09:26:24;14.64;58.10
6480;DHT22;71753;48.772;9.148;2024-02-16T09:28:55;14.56;58.64
6480;DHT22;71753;48.772;9.148;2024-02-16T09:31:23;14.48;58.79
6480;DHT22;71753;48.772;9.148;2024-02-16T09:33:50;14.66;59.08
6480;DHT22;71753;48.772;9.148;2024-02-16T09:36:19;14.48;58.82
6480;DHT22;71753;48.772;9.148;2024-02-16T09:38:45;14.62;59.16
6480;DHT22;71753;48.772;9.148;2024-02-16T09:41:13;14.63;58.24
6480;DHT22;71753;48.772;9.148;2024-02-16T09:43:42;14.53;58.90
6480;DHT22;71753;48.772;9.148;2024-02-16T09:46:09;14.82;58.03
6480;DHT22;71753;48.772;9.148;2024-02-16T09:48:39;15.23;56.91
6480;DHT22;71753;48.772;9.148;2024-02-16T09:51:06;15.38;56.42
6480;DHT22;71753;48.772;9.148;2024-02-16T09:53:34;15.69;55.92
6480;DHT22;71753;48.772;9.148;2024-02-16T09:56:01;16.28;54.55
6480;DHT22;71753;48.772;9.148;2024-02-16T09:58:28;16.43;54.84
6480;DHT22;71753;48.772;9.148;2024-02-16T10:00:55;16.79;52.29
6480;DHT22;71753;48.772;9.148;2024-02-16T10:03:24;16.73;50.97
6480;DHT22;71753;48.772;9.148;2024-02-16T10:05:51;17.01;50.08
6480;DHT22;71753;48.772;9.148;2024-02-16T10:08:18;16.95;49.15
6480;DHT22;71753;48.772;9.148;2024-02-16T10:10:45;16.75;50.34
6480;DHT22;71753;48.772;9.148;2024-02-16T10:13:12;16.59;49.55
6480;DHT22;71753;48.772;9.148;2024-02-16T10:15:39;16.35;50.10
6480;DHT22;71753;48.772;9.148;2024-02-16T10:18:06;16.29;51.21
6480;DHT22;71753;48.772;9.148;2024-02-16T10:20:34;16.45;50.52
6480;DHT22;71753;48.772;9.148;2024-02-16T10:23:07;16.33;50.71
6480;DHT22;71753;48.772;9.148;2024-02-16T10:25:34;16.31;51.10
6480;DHT22;71753;48.772;9.148;2024-02-16T10:28:04;16.39;51.29
6480;DHT22;71753;48.772;9.148;2024-02-16T10:30:35;16.46;51.32
6480;DHT22;71753;48.772;9.148;2024-02-16T10:33:03;16.72;50.82
6480;DHT22;71753;48.772;9.148;2024-02-16T10:35:30;16.78;50.20
6480;DHT22;71753;48.772;9.148;2024-02-16T10:38:00;17.10;49.98
6480;DHT22;71753;48.772;9.148;2024-02-16T10:40:32;17.28;49.18
6480;DHT22;71753;48.772;9.148;2024-02-16T10:43:03;17.10;50.27
6480;DHT22;71753;48.772;9.148;2024-02-16T10:45:33;16.85;51.38
6480;DHT22;71753;48.772;9.148;2024-02-16T10:48:00;16.86;50.27
6480;DHT22;71753;48.772;9.148;2024-02-16T10:50:27;17.15;50.14
6480;DHT22;71753;48.772;9.148;2024-02-16T10:52:55;16.76;51.16
6480;DHT22;71753;48.772;9.148;2024-02-16T10:55:23;16.65;51.35
6480;DHT22;71753;48.772;9.148;2024-02-16T10:57:52;16.60;51.67
6480;DHT22;71753;48.772;9.148;2024-02-16T11:00:21;16.43;52.20
6480;DHT22;71753;48.772;9.148;2024-02-16T11:02:52;16.46;51.95
6480;DHT22;71753;48.772;9.148;2024-02-16T11:05:31;16.60;52.07
6480;DHT22;71753;48.772;9.148;2024-02-16T11:08:02;16.87;51.32
6480;DHT22;71753;48.772;9.148;2024-02-16T11:10:29;16.72;50.56
6480;DHT22;71753;48.772;9.148;2024-02-16T11:13:02;16.55;51.63
6480;DHT22;71753;48.772;9.148;2024-02-16T11:15:31;16.62;52.04
6480;DHT22;71753;48.772;9.148;2024-02-16T11:17:58;16.67;51.57
6480;DHT22;71753;48.772;9.148;2024-02-16T11:20:26;16.66;51.68
6480;DHT22;71753;48.772;9.148;2024-02-16T11:22:53;16.59;51.04
6480;DHT22;71753;48.772;9.148;2024-02-16T11:25:30;16.52;51.61
6480;DHT22;71753;48.772;9.148;2024-02-16T11:27:57;16.62;51.14
6480;DHT22;71753;48.772;9.148;2024-02-16T11:30:26;16.88;51.34
6480;DHT22;71753;48.772;9.148;2024-02-16T11:32:52;16.88;51.23
6480;DHT22;71753;48.772;9.148;2024-02-16T11:35:19;16.72;51.66
6480;DHT22;71753;48.772;9.148;2024-02-16T11:37:46;16.71;51.56
6480;DHT22;71753;48.772;9.148;2024-02-16T11:40:13;16.81;51.24
6480;DHT22;71753;48.772;9.148;2024-02-16T11:42:40;16.66;52.62
6480;DHT22;71753;48.772;9.148;2024-02-16T11:45:10;16.74;52.96
6480;DHT22;71753;48.772;9.148;2024-02-16T11:47:39;17.19;51.25
6480;DHT22;71753;48.772;9.148;2024-02-16T11:50:07;17.28;51.30
6480;DHT22;71753;48.772;9.148;2024-02-16T11:52:36;17.39;50.85
6480;DHT22;71753;48.772;9.148;2024-02-16T11:55:03;17.83;49.38
6480;DHT22;71753;48.772;9.148;2024-02-16T11:57:30;18.34;48.66
6480;DHT22;71753;48.772;9.148;2024-02-16T11:59:57;18.20;49.14
6480;DHT22;71753;48.772;9.148;2024-02-16T12:02:24;18.17;49.42
6480;DHT22;71753;48.772;9.148;2024-02-16T12:04:59;18.36;48.92
6480;DHT22;71753;48.772;9.148;2024-02-16T12:07:26;18.53;47.76
6480;DHT22;71753;48.772;9.148;2024-02-16T12:09:56;18.70;47.15
6480;DHT22;71753;48.772;9.148;2024-02-16T12:12:24;18.27;48.82
6480;DHT22;71753;48.772;9.148;2024-02-16T12:14:50;18.38;49.66
6480;DHT22;71753;48.772;9.148;2024-02-16T12:17:18;18.15;50.32
6480;DHT22;71753;48.772;9.148;2024-02-16T12:19:45;17.84;51.02
6480;DHT22;71753;48.772;9.148;2024-02-16T12:22:18;17.94;51.53
6480;DHT22;71753;48.772;9.148;2024-02-16T12:24:45;17.83;50.74
6480;DHT22;71753;48.772;9.148;2024-02-16T12:27:11;18.08;50.21
6480;DHT22;71753;48.772;9.148;2024-02-16T12:29:38;18.08;50.53
6480;DHT22;71753;48.772;9.148;2024-02-16T12:32:06;17.78;50.90
6480;DHT22;71753;48.772;9.148;2024-02-16T12:34:34;17.80;50.95
6480;DHT22;71753;48.772;9.148;2024-02-16T12:37:04;17.84;51.57
6480;DHT22;71753;48.772;9.148;2024-02-16T12:39:34;17.90;52.11
6480;DHT22;71753;48.772;9.148;2024-02-16T12:42:01;17.70;51.97
6480;DHT22;71753;48.772;9.148;2024-02-16T12:44:28;17.54;52.20
6480;DHT22;71753;48.772;9.148;2024-02-16T12:46:55;17.39;52.50
6480;DHT22;71753;48.772;9.148;2024-02-16T12:49:22;17.58;52.23
6480;DHT22;71753;48.772;9.148;2024-02-16T12:51:49;17.70;51.88
6480;DHT22;71753;48.772;9.148;2024-02-16T12:54:16;17.51;53.26
6480;DHT22;71753;48.772;9.148;2024-02-16T12:56:46;17.47;52.00
6480;DHT22;71753;48.772;9.148;2024-02-16T12:59:13;17.53;52.11
6480;DHT22;71753;48.772;9.148;2024-02-16T13:01:40;17.51;53.33
6480;DHT22;71753;48.772;9.148;2024-02-16T13:04:08;17.59;52.01
6480;DHT22;71753;48.772;9.148;2024-02-16T13:06:35;17.60;52.27
6480;DHT22;71753;48.772;9.148;2024-02-16T13:09:02;18.00;51.64
6480;DHT22;71753;48.772;9.148;2024-02-16T13:11:29;18.13;51.23
6480;DHT22;71753;48.772;9.148;2024-02-16T13:13:57;18.08;52.49
6480;DHT22;71753;48.772;9.148;2024-02-16T13:16:24;17.75;52.12
6480;DHT22;71753;48.772;9.148;2024-02-16T13:18:52;17.08;53.23
6480;DHT22;71753;48.772;9.148;2024-02-16T13:21:18;16.82;54.37
6480;DHT22;71753;48.772;9.148;2024-02-16T13:23:45;16.88;54.76
6480;DHT22;71753;48.772;9.148;2024-02-16T13:26:12;17.04;54.01
6480;DHT22;71753;48.772;9.148;2024-02-16T13:28:39;16.84;54.71
6480;DHT22;71753;48.772;9.148;2024-02-16T13:31:07;16.69;55.33
6480;DHT22;71753;48.772;9.148;2024-02-16T13:33:35;16.66;55.45
6480;DHT22;71753;48.772;9.148;2024-02-16T13:36:02;16.72;55.59
6480;DHT22;71753;48.772;9.148;2024-02-16T13:38:30;16.89;55.05
6480;DHT22;71753;48.772;9.148;2024-02-16T13:40:57;16.84;55.38
6480;DHT22;71753;48.772;9.148;2024-02-16T13:43:24;16.88;55.48
6480;DHT22;71753;48.772;9.148;2024-02-16T13:45:52;16.75;55.68
6480;DHT22;71753;48.772;9.148;2024-02-16T13:48:20;16.74;55.97
6480;DHT22;71753;48.772;9.148;2024-02-16T13:50:47;16.78;55.94
6480;DHT22;71753;48.772;9.148;2024-02-16T13:53:15;16.80;56.36
6480;DHT22;71753;48.772;9.148;2024-02-16T13:55:42;16.88;56.42
6480;DHT22;71753;48.772;9.148;2024-02-16T13:58:09;16.84;56.29
6480;DHT22;71753;48.772;9.148;2024-02-16T14:00:36;16.81;56.26
6480;DHT22;71753;48.772;9.148;2024-02-16T14:03:04;16.79;56.62
6480;DHT22;71753;48.772;9.148;2024-02-16T14:05:32;16.66;56.94
6480;DHT22;71753;48.772;9.148;2024-02-16T14:07:59;16.56;57.74
6480;DHT22;71753;48.772;9.148;2024-02-16T14:10:26;16.50;57.87
6480;DHT22;71753;48.772;9.148;2024-02-16T14:12:52;16.48;58.19
6480;DHT22;71753;48.772;9.148;2024-02-16T14:15:19;16.45;58.17
6480;DHT22;71753;48.772;9.148;2024-02-16T14:17:46;16.39;58.29
6480;DHT22;71753;48.772;9.148;2024-02-16T14:20:13;16.41;58.41
6480;DHT22;71753;48.772;9.148;2024-02-16T14:22:41;16.56;58.37
6480;DHT22;71753;48.772;9.148;2024-02-16T14:25:08;16.65;58.51
6480;DHT22;71753;48.772;9.148;2024-02-16T14:27:36;16.69;58.53
6480;DHT22;71753;48.772;9.148;2024-02-16T14:30:04;16.76;59.30
6480;DHT22;71753;48.772;9.148;2024-02-16T14:32:31;16.67;58.86
6480;DHT22;71753;48.772;9.148;2024-02-16T14:34:58;16.76;59.13
6480;DHT22;71753;48.772;9.148;2024-02-16T14:37:24;16.69;58.73
6480;DHT22;71753;48.772;9.148;2024-02-16T14:39:54;16.61;57.75
6480;DHT22;71753;48.772;9.148;2024-02-16T14:42:23;16.57;58.65
6480;DHT22;71753;48.772;9.148;2024-02-16T14:44:49;16.42;59.52
6480;DHT22;71753;48.772;9.148;2024-02-16T14:47:16;16.44;59.70
6480;DHT22;71753;48.772;9.148;2024-02-16T14:49:43;16.30;59.77
6480;DHT22;71753;48.772;9.148;2024-02-16T14:52:10;16.26;59.92
6480;DHT22;71753;48.772;9.148;2024-02-16T14:54:37;16.20;60.21
6480;DHT22;71753;48.772;9.148;2024-02-16T14:57:06;16.19;60.20
6480;DHT22;71753;48.772;9.148;2024-02-16T14:59:33;16.16;60.49
6480;DHT22;71753;48.772;9.148;2024-02-16T15:02:00;16.21;60.40
6480;DHT22;71753;48.772;9.148;2024-02-16T15:04:27;16.18;60.60
6480;DHT22;71753;48.772;9.148;2024-02-16T15:06:56;16.24;60.49
6480;DHT22;71753;48.772;9.148;2024-02-16T15:09:22;16.25;60.99
6480;DHT22;71753;48.772;9.148;2024-02-16T15:11:49;16.30;60.55
6480;DHT22;71753;48.772;9.148;2024-02-16T15:14:17;16.29;61.19
6480;DHT22;71753;48.772;9.148;2024-02-16T15:16:44;16.30;60.96
6480;DHT22;71753;48.772;9.148;2024-02-16T15:19:10;16.25;61.55
6480;DHT22;71753;48.772;9.148;2024-02-16T15:21:37;16.18;61.29
6480;DHT22;71753;48.772;9.148;2024-02-16T15:24:05;16.13;61.36
6480;DHT22;71753;48.772;9.148;2024-02-16T15:26:31;16.12;61.47
6480;DHT22;71753;48.772;9.148;2024-02-16T15:28:58;16.14;61.45
6480;DHT22;71753;48.772;9.148;2024-02-16T15:31:27;16.11;61.60
6480;DHT22;71753;48.772;9.148;2024-02-16T15:33:54;16.12;61.82
6480;DHT22;71753;48.772;9.148;2024-02-16T15:36:21;16.07;62.02
6480;DHT22;71753;48.772;9.148;2024-02-16T15:38:47;16.08;61.96
6480;DHT22;71753;48.772;9.148;2024-02-16T15:41:16;16.03;62.41
6480;DHT22;71753;48.772;9.148;2024-02-16T15:43:42;15.96;62.87
6480;DHT22;71753;48.772;9.148;2024-02-16T15:46:09;15.91;63.16
6480;DHT22;71753;48.772;9.148;2024-02-16T15:48:37;15.89;63.57